createdAt,value
2022-09-26T00:00:37.277Z,73.93
2022-09-26T00:04:58.961Z,80.78
2022-09-26T00:09:00.835Z,69.50
2022-09-26T00:13:02.558Z,66.78
2022-09-26T00:17:04.565Z,65.82
2022-09-26T00:21:09.109Z,70.60
2022-09-26T00:25:11.028Z,74.75
2022-09-26T00:29:14.335Z,77.97
2022-09-26T00:33:17.036Z,84.78
2022-09-26T00:37:18.687Z,62.33
2022-09-26T00:41:22.407Z,62.30
2022-09-26T00:45:30.054Z,67.55
2022-09-26T00:49:38.537Z,78.40
2022-09-26T00:53:45.932Z,77.53
2022-09-26T00:57:53.812Z,84.18
2022-09-26T01:01:58.703Z,65.67
2022-09-26T01:06:01.428Z,83.60
2022-09-26T01:10:06.040Z,85.60
2022-09-26T01:14:12.321Z,77.38
2022-09-26T01:18:14.261Z,86.50
2022-09-26T01:23:03.029Z,101.40
2022-09-26T01:27:39.920Z,105.63
2022-09-26T01:32:26.472Z,93.15
2022-09-26T01:37:17.298Z,94.38
2022-09-26T01:41:48.354Z,92.53
2022-09-26T01:45:59.042Z,95.82
2022-09-26T01:50:16.364Z,135.43
2022-09-26T01:54:24.036Z,109.57
2022-09-26T01:58:35.979Z,100.90
2022-09-26T02:02:42.348Z,117.88
2022-09-26T02:06:52.888Z,136.50
2022-09-26T02:11:17.197Z,123.68
2022-09-26T02:15:21.257Z,101.55
2022-09-26T02:19:29.296Z,111.57
2022-09-26T02:23:31.305Z,147.55
2022-09-26T02:27:33.204Z,108.75
2022-09-26T02:31:42.971Z,107.80
2022-09-26T02:35:57.439Z,211.25
2022-09-26T02:40:02.611Z,127.97
2022-09-26T02:44:32.164Z,89.82
2022-09-26T02:48:52.982Z,80.93
2022-09-26T02:53:06.945Z,177.45
2022-09-26T02:57:45.752Z,83.15
2022-09-26T03:02:21.662Z,171.57
2022-09-26T03:06:46.602Z,92.05
2022-09-26T03:10:50.115Z,96.40
2022-09-26T03:14:58.460Z,160.85
2022-09-26T03:23:11.907Z,157.98
2022-09-26T03:27:14.769Z,87.47
2022-09-26T03:31:17.104Z,96.13
2022-09-26T03:35:26.368Z,207.68
2022-09-26T03:39:28.267Z,218.10
2022-09-26T03:43:43.664Z,94.28
2022-09-26T03:47:45.727Z,101.50
2022-09-26T03:51:48.006Z,226.05
2022-09-26T03:55:50.239Z,236.88
2022-09-26T03:59:51.997Z,81.40
2022-09-26T04:03:56.245Z,125.53
2022-09-26T04:07:59.925Z,131.88
2022-09-26T04:12:01.878Z,219.68
2022-09-26T04:16:05.881Z,103.28
2022-09-26T04:20:09.679Z,96.18
2022-09-26T04:24:16.653Z,218.85
2022-09-26T04:28:18.799Z,244.38
2022-09-26T04:32:20.631Z,264.38
2022-09-26T04:36:59.337Z,83.50
2022-09-26T04:41:05.664Z,65.05
2022-09-26T04:45:08.401Z,85.05
2022-09-26T04:49:10.303Z,121.70
2022-09-26T04:53:12.271Z,157.85
2022-09-26T04:57:20.956Z,163.93
2022-09-26T05:01:23.249Z,180.73
2022-09-26T05:05:36.816Z,190.23
2022-09-26T05:09:40.017Z,100.47
2022-09-26T05:13:53.066Z,201.57
2022-09-26T05:17:59.921Z,147.55
2022-09-26T05:22:04.606Z,78.95
2022-09-26T05:26:20.044Z,131.98
2022-09-26T05:30:21.849Z,168.93
2022-09-26T05:34:26.066Z,118.47
2022-09-26T05:38:28.507Z,107.18
2022-09-26T05:42:30.814Z,138.27
2022-09-26T05:46:34.809Z,214.50
2022-09-26T05:50:44.098Z,87.57
2022-09-26T05:54:45.898Z,102.57
2022-09-26T05:59:06.485Z,79.35
2022-09-26T06:03:27.874Z,210.60
2022-09-26T06:07:43.077Z,84.40
2022-09-26T06:11:49.883Z,238.35
2022-09-26T06:15:52.639Z,133.65
2022-09-26T06:19:55.030Z,211.68
2022-09-26T06:23:57.052Z,192.00
2022-09-26T06:28:00.845Z,131.15
2022-09-26T06:32:04.965Z,93.75
2022-09-26T06:36:27.521Z,138.40
2022-09-26T06:40:29.733Z,128.88
2022-09-26T06:44:31.759Z,144.90
2022-09-26T06:48:50.820Z,224.68
2022-09-26T06:53:11.464Z,117.90
2022-09-26T06:57:15.325Z,133.95
2022-09-26T07:01:18.559Z,157.93
2022-09-26T07:05:31.176Z,110.68
2022-09-26T07:09:33.736Z,173.15
2022-09-26T07:13:47.723Z,132.68
2022-09-26T07:17:49.488Z,105.72
2022-09-26T07:22:06.692Z,133.38
2022-09-26T07:26:15.940Z,89.28
2022-09-26T07:30:19.413Z,101.75
2022-09-26T07:34:32.147Z,112.57
2022-09-26T07:38:34.164Z,103.55
2022-09-26T07:42:37.904Z,92.35
2022-09-26T07:46:58.743Z,129.98
2022-09-26T07:51:03.568Z,109.22
2022-09-26T07:55:24.590Z,83.45
2022-09-26T07:59:44.120Z,113.80
2022-09-26T08:04:06.362Z,108.00
2022-09-26T08:08:11.838Z,95.50
2022-09-26T08:12:51.970Z,87.20
2022-09-26T08:17:14.400Z,108.80
2022-09-26T08:21:16.732Z,108.90
2022-09-26T08:25:18.641Z,102.60
2022-09-26T08:29:27.599Z,108.70
2022-09-26T08:33:35.343Z,105.57
2022-09-26T08:37:37.316Z,105.93
2022-09-26T08:42:15.454Z,109.68
2022-09-26T08:46:55.086Z,99.85
2022-09-26T08:51:30.081Z,95.15
2022-09-26T08:55:39.957Z,95.95
2022-09-26T08:59:44.013Z,81.57
2022-09-26T09:04:18.346Z,84.25
2022-09-26T09:08:25.264Z,89.35
2022-09-26T09:13:05.376Z,84.65
2022-09-26T09:17:48.235Z,71.72
2022-09-26T09:22:30.592Z,70.10
2022-09-26T09:31:43.027Z,64.63
2022-09-26T09:36:18.733Z,64.00
2022-09-26T09:40:58.095Z,54.65
2022-09-26T09:45:09.450Z,56.03
2022-09-26T09:49:23.449Z,54.80
2022-09-26T09:53:28.152Z,54.53
2022-09-26T09:57:57.826Z,46.90
2022-09-26T10:02:13.376Z,46.50
2022-09-26T10:06:44.164Z,44.28
2022-09-26T10:10:59.011Z,42.35
2022-09-26T10:15:24.168Z,41.33
2022-09-26T10:19:45.196Z,38.03
2022-09-26T10:23:50.594Z,37.70
2022-09-26T10:28:24.766Z,36.05
2022-09-26T10:32:30.465Z,38.55
2022-09-26T10:36:52.947Z,30.10
2022-09-26T10:41:01.365Z,26.45
2022-09-26T10:45:15.921Z,25.83
2022-09-26T10:49:48.414Z,31.63
2022-09-26T10:54:43.950Z,26.00
2022-09-26T10:58:47.140Z,25.38
2022-09-26T11:02:52.302Z,18.15
2022-09-26T11:06:54.442Z,20.48
2022-09-26T11:11:12.643Z,19.33
2022-09-26T11:15:16.219Z,21.90
2022-09-26T11:19:28.153Z,21.75
2022-09-26T11:23:50.843Z,24.88
2022-09-26T11:28:14.974Z,25.08
2022-09-26T11:32:47.345Z,15.95
2022-09-26T11:37:45.321Z,16.45
2022-09-26T11:42:13.765Z,17.55
2022-09-26T11:46:47.540Z,12.52
2022-09-26T11:51:19.927Z,17.70
2022-09-26T11:55:45.220Z,18.40
2022-09-26T12:00:02.157Z,16.13
2022-09-26T12:04:21.624Z,16.25
2022-09-26T12:08:38.885Z,15.35
2022-09-26T12:13:13.674Z,11.80
2022-09-26T12:17:53.686Z,17.63
2022-09-26T12:22:42.066Z,17.63
2022-09-26T12:26:55.163Z,15.20
2022-09-26T12:31:00.503Z,11.20
2022-09-26T12:35:28.028Z,12.23
2022-09-26T12:39:49.515Z,13.48
2022-09-26T12:44:15.837Z,11.82
2022-09-26T12:48:29.699Z,10.60
2022-09-26T12:52:55.322Z,14.20
2022-09-26T12:57:09.356Z,13.55
2022-09-26T13:01:46.760Z,14.38
2022-09-26T13:06:11.594Z,15.43
2022-09-26T13:10:28.763Z,15.75
2022-09-26T13:14:57.308Z,13.55
2022-09-26T13:19:05.721Z,13.67
2022-09-26T13:23:26.349Z,11.98
2022-09-26T13:27:36.225Z,8.88
2022-09-26T13:32:03.151Z,13.88
2022-09-26T13:36:08.376Z,13.80
2022-09-26T13:40:33.163Z,13.35
2022-09-26T13:44:49.073Z,12.90
2022-09-26T13:49:15.227Z,12.00
2022-09-26T13:53:32.378Z,9.55
2022-09-26T13:57:45.701Z,9.57
2022-09-26T14:02:23.351Z,9.73
2022-09-26T14:06:29.094Z,7.30
2022-09-26T14:10:35.904Z,10.40
2022-09-26T14:14:42.865Z,11.32
2022-09-26T14:18:55.863Z,9.05
2022-09-26T14:22:58.324Z,9.95
2022-09-26T14:27:11.214Z,10.10
2022-09-26T14:31:25.040Z,8.10
2022-09-26T14:35:30.145Z,10.77
2022-09-26T14:39:42.135Z,10.63
2022-09-26T14:43:45.102Z,12.73
2022-09-26T14:47:56.862Z,7.55
2022-09-26T14:52:01.488Z,8.70
2022-09-26T14:56:14.503Z,8.73
2022-09-26T15:00:42.710Z,10.45
2022-09-26T15:04:59.213Z,10.70
2022-09-26T15:09:09.239Z,13.57
2022-09-26T15:13:22.773Z,13.15
2022-09-26T15:17:31.203Z,27.13
2022-09-26T15:21:51.770Z,18.77
2022-09-26T15:25:57.501Z,20.17
2022-09-26T15:30:07.155Z,12.35
2022-09-26T15:34:19.376Z,15.35
2022-09-26T15:38:23.880Z,15.13
2022-09-26T15:42:49.079Z,18.63
2022-09-26T15:46:51.499Z,23.05
2022-09-26T15:51:28.925Z,23.65
2022-09-26T15:55:34.223Z,35.15
2022-09-26T15:59:41.636Z,24.10
2022-09-26T16:03:52.605Z,19.05
2022-09-26T16:07:55.186Z,26.65
2022-09-26T16:12:00.579Z,24.90
2022-09-26T16:16:07.874Z,29.67
2022-09-26T16:20:09.557Z,27.42
2022-09-26T16:24:34.336Z,26.17
2022-09-26T16:28:42.558Z,25.27
2022-09-26T16:32:44.493Z,26.80
2022-09-26T16:36:46.262Z,23.33
2022-09-26T16:40:58.480Z,25.17
2022-09-26T16:45:05.522Z,28.05
2022-09-26T16:49:28.792Z,18.27
2022-09-26T16:53:31.041Z,26.05
2022-09-26T16:57:37.102Z,27.50
2022-09-26T17:01:53.936Z,20.52
2022-09-26T17:05:57.556Z,25.50
2022-09-26T17:09:59.231Z,26.02
2022-09-26T17:14:01.102Z,24.73
2022-09-26T17:18:06.095Z,35.70
2022-09-26T17:22:15.939Z,37.95
2022-09-26T17:26:21.818Z,32.95
2022-09-26T17:30:23.718Z,35.42
2022-09-26T17:34:28.322Z,35.78
2022-09-26T17:38:30.288Z,34.75
2022-09-26T17:42:32.108Z,35.90
2022-09-26T17:46:37.435Z,32.42
2022-09-26T17:50:39.895Z,33.38
2022-09-26T17:54:42.570Z,38.00
2022-09-26T17:58:45.515Z,50.88
2022-09-26T18:02:53.141Z,46.90
2022-09-26T18:06:58.657Z,51.75
2022-09-26T18:11:03.905Z,45.20
2022-09-26T18:15:06.053Z,45.63
2022-09-26T18:19:11.685Z,45.55
2022-09-26T18:23:20.978Z,50.30
2022-09-26T18:27:23.228Z,56.38
2022-09-26T18:31:30.743Z,54.88
2022-09-26T18:35:32.642Z,54.92
2022-09-26T18:39:34.778Z,38.85
2022-09-26T18:43:42.271Z,37.13
2022-09-26T18:47:45.108Z,31.05
2022-09-26T18:51:47.229Z,16.30
2022-09-26T18:56:07.910Z,9.70
2022-09-26T19:00:10.651Z,12.32
2022-09-26T19:04:17.811Z,7.93
2022-09-26T19:08:35.537Z,9.05
2022-09-26T19:12:39.554Z,9.48
2022-09-26T19:16:43.312Z,8.95
2022-09-26T19:20:45.139Z,6.28
2022-09-26T19:24:54.107Z,6.85
2022-09-26T19:28:58.165Z,7.45
2022-09-26T19:33:00.146Z,10.20
2022-09-26T19:37:03.188Z,10.35
2022-09-26T19:41:05.777Z,11.93
2022-09-26T19:45:09.744Z,12.90
2022-09-26T19:49:17.905Z,14.50
2022-09-26T19:53:22.519Z,12.73
2022-09-26T19:57:24.671Z,13.55
2022-09-26T20:01:27.407Z,22.48
2022-09-26T20:05:29.557Z,19.00
2022-09-26T20:09:31.432Z,17.83
2022-09-26T20:13:53.774Z,23.02
2022-09-26T20:17:58.383Z,18.02
2022-09-26T20:22:02.514Z,20.92
2022-09-26T20:26:04.309Z,22.08
2022-09-26T20:30:25.787Z,50.40
2022-09-26T20:34:28.253Z,51.30
2022-09-26T20:38:33.673Z,53.00
2022-09-26T20:42:38.299Z,60.55
2022-09-26T20:46:48.527Z,52.50
2022-09-26T20:50:51.110Z,54.72
2022-09-26T20:54:55.198Z,47.67
2022-09-26T20:58:57.100Z,42.13
2022-09-26T21:02:58.996Z,43.03
2022-09-26T21:07:00.810Z,31.58
2022-09-26T21:11:02.908Z,36.70
2022-09-26T21:15:04.785Z,34.30
2022-09-26T21:19:09.407Z,33.60
2022-09-26T21:23:11.162Z,32.25
2022-09-26T21:27:13.349Z,32.33
2022-09-26T21:31:22.293Z,32.72
2022-09-26T21:35:30.715Z,28.92
2022-09-26T21:39:32.526Z,24.00
2022-09-26T21:43:38.173Z,35.10
2022-09-26T21:47:40.354Z,31.75
2022-09-26T21:51:44.374Z,34.80
2022-09-26T21:55:52.833Z,35.92
2022-09-26T21:59:55.788Z,51.53
2022-09-26T22:03:58.459Z,55.33
2022-09-26T22:08:00.552Z,41.10
2022-09-26T22:12:02.430Z,61.72
2022-09-26T22:16:09.093Z,52.03
2022-09-26T22:20:11.659Z,58.03
2022-09-26T22:24:13.619Z,69.35
2022-09-26T22:28:15.276Z,63.25
2022-09-26T22:32:17.121Z,43.88
2022-09-26T22:36:18.909Z,55.03
2022-09-26T22:40:20.754Z,43.78
2022-09-26T22:44:22.541Z,42.47
2022-09-26T22:48:24.478Z,42.88
2022-09-26T22:52:26.065Z,38.50
2022-09-26T22:56:27.865Z,39.47
2022-09-26T23:00:29.604Z,42.95
2022-09-26T23:04:46.820Z,37.65
2022-09-26T23:08:49.073Z,46.75
2022-09-26T23:12:51.145Z,39.80
2022-09-26T23:16:52.813Z,44.33
2022-09-26T23:20:54.644Z,45.47
2022-09-26T23:24:56.494Z,47.97
2022-09-26T23:28:59.292Z,43.25
2022-09-26T23:33:01.065Z,42.30
2022-09-26T23:37:02.930Z,54.42
2022-09-26T23:41:06.663Z,49.03
2022-09-26T23:45:08.912Z,43.17
2022-09-26T23:49:10.707Z,42.20
2022-09-26T23:53:13.774Z,40.47
2022-09-26T23:57:15.435Z,43.67
